createdAt,value
2022-12-01T00:01:12.681Z,100960.06
2022-12-01T00:03:41.856Z,100955.63
2022-12-01T00:06:19.116Z,100963.56
2022-12-01T00:09:06.256Z,100967.28
2022-12-01T00:11:35.590Z,100968.06
2022-12-01T00:14:04.514Z,100970.41
2022-12-01T00:16:33.612Z,100974.06
2022-12-01T00:19:02.592Z,100974.63
2022-12-01T00:21:31.591Z,100976.41
2022-12-01T00:23:58.243Z,100977.28
2022-12-01T00:26:30.997Z,100982.44
2022-12-01T00:28:58.639Z,100984.06
2022-12-01T00:31:25.859Z,100985.66
2022-12-01T00:33:52.744Z,100980.31
2022-12-01T00:36:19.315Z,100976.75
2022-12-01T00:38:46.069Z,100974.72
2022-12-01T00:41:12.644Z,100972.69
2022-12-01T00:43:39.880Z,100980.41
2022-12-01T00:46:08.146Z,100978.28
2022-12-01T00:48:37.138Z,100980.88
2022-12-01T00:51:03.853Z,100980.78
2022-12-01T00:53:30.645Z,100979.69
2022-12-01T00:55:57.383Z,100983.91
2022-12-01T00:58:26.307Z,100989.06
2022-12-01T01:00:59.696Z,100993.03
2022-12-01T01:03:29.512Z,100990.91
2022-12-01T01:05:59.009Z,100991.63
2022-12-01T01:08:27.671Z,100996.69
2022-12-01T01:10:54.565Z,100986.38
2022-12-01T01:13:21.092Z,100986.47
2022-12-01T01:15:56.673Z,100989.03
2022-12-01T01:18:25.887Z,100978.66
2022-12-01T01:20:56.650Z,100979.34
2022-12-01T01:23:23.259Z,100987.59
2022-12-01T01:25:54.297Z,100979.59
2022-12-01T01:28:20.900Z,100975.16
2022-12-01T01:30:49.866Z,100982.88
2022-12-01T01:33:16.457Z,100977.19
2022-12-01T01:35:43.112Z,100984.56
2022-12-01T01:38:12.309Z,100983.31
2022-12-01T01:40:46.539Z,100982.25
2022-12-01T01:43:20.598Z,100984.81
2022-12-01T01:45:51.719Z,100987.41
2022-12-01T01:48:18.478Z,100985.59
2022-12-01T01:50:45.032Z,100980.34
2022-12-01T01:53:15.005Z,100987.91
2022-12-01T01:55:41.617Z,100989.63
2022-12-01T01:58:10.658Z,100983.53
2022-12-01T02:00:38.268Z,100986.72
2022-12-01T02:03:07.694Z,100981.56
2022-12-01T02:05:34.538Z,100978.72
2022-12-01T02:08:01.604Z,100978.53
2022-12-01T02:10:42.771Z,100974.97
2022-12-01T02:13:16.299Z,100974.16
2022-12-01T02:15:46.011Z,100973.97
2022-12-01T02:18:31.256Z,100973.06
2022-12-01T02:21:08.809Z,100980.91
2022-12-01T02:23:57.753Z,100981.00
2022-12-01T02:26:32.733Z,100980.81
2022-12-01T02:29:18.093Z,100974.75
2022-12-01T02:31:51.000Z,100979.22
2022-12-01T02:34:22.883Z,100978.41
2022-12-01T02:36:51.626Z,100980.06
2022-12-01T02:39:21.161Z,100984.63
2022-12-01T02:41:51.397Z,100976.78
2022-12-01T02:44:18.877Z,100980.22
2022-12-01T02:46:54.465Z,100981.22
2022-12-01T02:49:22.582Z,100968.47
2022-12-01T02:51:49.282Z,100971.13
2022-12-01T02:54:15.906Z,100978.47
2022-12-01T02:56:46.102Z,100969.44
2022-12-01T02:59:15.983Z,100967.38
2022-12-01T03:01:46.128Z,100963.19
2022-12-01T03:04:21.656Z,100960.81
2022-12-01T03:06:51.606Z,100967.97
2022-12-01T03:09:27.394Z,100969.84
2022-12-01T03:11:57.235Z,100962.81
2022-12-01T03:14:35.362Z,100960.06
2022-12-01T03:17:04.447Z,100965.19
2022-12-01T03:19:36.238Z,100965.97
2022-12-01T03:22:11.273Z,100964.28
2022-12-01T03:24:37.989Z,100970.91
2022-12-01T03:27:04.674Z,100965.38
2022-12-01T03:29:39.959Z,100963.69
2022-12-01T03:32:21.339Z,100968.84
2022-12-01T03:35:10.935Z,100958.47
2022-12-01T03:37:39.578Z,100960.34
2022-12-01T03:40:07.202Z,100961.22
2022-12-01T03:42:36.895Z,100955.28
2022-12-01T03:45:07.745Z,100949.44
2022-12-01T03:47:35.765Z,100954.50
2022-12-01T03:50:02.309Z,100959.13
2022-12-01T03:52:28.921Z,100961.13
2022-12-01T03:54:59.505Z,100960.56
2022-12-01T03:57:29.234Z,100953.53
2022-12-01T03:59:55.976Z,100958.88
2022-12-01T04:02:25.537Z,100957.25
2022-12-01T04:04:52.138Z,100958.19
2022-12-01T04:07:18.678Z,100958.34
2022-12-01T04:09:45.205Z,100948.84
2022-12-01T04:12:30.569Z,100951.91
2022-12-01T04:14:57.546Z,100952.66
2022-12-01T04:17:24.690Z,100948.19
2022-12-01T04:19:53.612Z,100952.72
2022-12-01T04:22:25.229Z,100951.44
2022-12-01T04:24:52.129Z,100949.94
2022-12-01T04:27:19.016Z,100943.72
2022-12-01T04:29:45.820Z,100948.09
2022-12-01T04:32:13.521Z,100948.19
2022-12-01T04:34:40.394Z,100943.31
2022-12-01T04:37:10.064Z,100952.94
2022-12-01T04:39:36.656Z,100957.28
2022-12-01T04:42:03.224Z,100963.00
2022-12-01T04:44:34.944Z,100964.63
2022-12-01T04:47:02.293Z,100969.44
2022-12-01T04:49:32.640Z,100966.59
2022-12-01T04:52:01.783Z,100982.59
2022-12-01T04:54:28.393Z,100985.44
2022-12-01T04:56:54.895Z,100992.06
2022-12-01T04:59:21.495Z,100993.16
2022-12-01T05:01:48.339Z,100989.00
2022-12-01T05:04:17.553Z,100990.88
2022-12-01T05:06:44.153Z,100977.34
2022-12-01T05:09:17.515Z,100979.22
2022-12-01T05:11:44.803Z,100969.03
2022-12-01T05:14:11.316Z,100974.09
2022-12-01T05:16:40.479Z,100978.22
2022-12-01T05:19:25.920Z,100971.22
2022-12-01T05:21:52.603Z,100977.63
2022-12-01T05:24:19.571Z,100977.44
2022-12-01T05:26:51.692Z,100982.38
2022-12-01T05:29:18.346Z,100981.56
2022-12-01T05:31:45.482Z,100976.63
2022-12-01T05:34:16.702Z,100978.53
2022-12-01T05:36:43.684Z,100977.13
2022-12-01T05:39:12.747Z,100982.28
2022-12-01T05:41:42.061Z,100980.28
2022-12-01T05:44:08.743Z,100979.19
2022-12-01T05:46:37.826Z,100977.53
2022-12-01T05:49:10.066Z,100983.13
2022-12-01T05:51:37.094Z,100977.81
2022-12-01T05:54:04.084Z,100978.59
2022-12-01T05:56:32.868Z,100980.19
2022-12-01T05:59:02.138Z,100980.84
2022-12-01T06:01:33.959Z,100985.66
2022-12-01T06:04:04.011Z,100990.50
2022-12-01T06:06:30.822Z,100997.28
2022-12-01T06:08:57.913Z,100997.59
2022-12-01T06:11:26.529Z,100999.53
2022-12-01T06:13:55.513Z,101003.03
2022-12-01T06:16:22.339Z,101000.47
2022-12-01T06:18:48.870Z,101000.56
2022-12-01T06:21:17.860Z,101001.13
2022-12-01T06:23:44.572Z,101002.91
2022-12-01T06:26:13.676Z,101006.16
2022-12-01T06:28:40.310Z,101004.81
2022-12-01T06:31:06.900Z,101010.31
2022-12-01T06:33:33.489Z,101004.72
2022-12-01T06:36:04.267Z,101004.50
2022-12-01T06:38:36.772Z,101003.94
2022-12-01T06:41:03.635Z,101007.06
2022-12-01T06:43:34.344Z,101007.28
2022-12-01T06:46:04.192Z,101000.56
2022-12-01T06:48:31.723Z,100998.13
2022-12-01T06:50:58.919Z,100995.44
2022-12-01T06:53:27.420Z,101003.72
2022-12-01T06:55:57.426Z,101006.06
2022-12-01T06:58:24.020Z,101004.59
2022-12-01T07:00:53.196Z,101012.06
2022-12-01T07:03:19.772Z,101002.25
2022-12-01T07:05:54.630Z,101007.50
2022-12-01T07:08:23.383Z,101001.13
2022-12-01T07:11:02.873Z,101003.91
2022-12-01T07:13:33.993Z,101006.03
2022-12-01T07:16:01.362Z,101002.97
2022-12-01T07:18:27.873Z,101008.47
2022-12-01T07:20:56.766Z,101004.41
2022-12-01T07:23:25.823Z,101007.59
2022-12-01T07:25:59.537Z,101014.63
2022-12-01T07:28:29.174Z,101010.81
2022-12-01T07:31:05.864Z,101010.31
2022-12-01T07:33:32.515Z,101006.50
2022-12-01T07:35:59.458Z,101010.50
2022-12-01T07:38:27.806Z,101010.22
2022-12-01T07:40:56.904Z,101007.31
2022-12-01T07:43:23.400Z,101014.16
2022-12-01T07:45:50.126Z,101016.25
2022-12-01T07:48:19.047Z,101002.59
2022-12-01T07:50:45.782Z,101011.63
2022-12-01T07:53:14.703Z,101011.34
2022-12-01T07:55:48.007Z,101012.53
2022-12-01T07:58:14.567Z,101016.63
2022-12-01T08:00:41.207Z,101018.13
2022-12-01T08:03:07.802Z,101014.47
2022-12-01T08:05:34.447Z,101020.00
2022-12-01T08:08:01.095Z,101018.06
2022-12-01T08:10:30.474Z,101018.53
2022-12-01T08:12:57.460Z,101020.91
2022-12-01T08:15:24.301Z,101017.00
2022-12-01T08:17:51.693Z,101009.84
2022-12-01T08:20:24.098Z,101010.41
2022-12-01T08:22:53.283Z,101011.91
2022-12-01T08:25:22.603Z,101001.19
2022-12-01T08:27:49.132Z,101003.44
2022-12-01T08:30:18.839Z,101004.28
2022-12-01T08:32:47.894Z,101007.63
2022-12-01T08:35:15.337Z,101010.16
2022-12-01T08:37:42.365Z,101010.34
2022-12-01T08:40:09.226Z,101015.50
2022-12-01T08:42:35.803Z,101026.97
2022-12-01T08:45:02.435Z,101020.59
2022-12-01T08:47:29.090Z,101020.94
2022-12-01T08:49:58.348Z,101015.72
2022-12-01T08:52:24.890Z,101015.56
2022-12-01T08:54:54.293Z,101013.78
2022-12-01T08:57:21.012Z,101013.88
2022-12-01T08:59:49.814Z,101015.53
2022-12-01T09:02:18.335Z,101007.63
2022-12-01T09:04:47.496Z,101006.22
2022-12-01T09:07:19.038Z,101009.66
2022-12-01T09:09:48.388Z,101004.16
2022-12-01T09:12:15.219Z,101007.88
2022-12-01T09:14:48.177Z,101007.75
2022-12-01T09:17:17.219Z,101001.50
2022-12-01T09:19:46.286Z,100995.94
2022-12-01T09:22:13.114Z,100993.53
2022-12-01T09:24:42.110Z,100996.59
2022-12-01T09:27:09.273Z,100992.94
2022-12-01T09:29:35.842Z,100986.41
2022-12-01T09:32:02.418Z,100991.41
2022-12-01T09:34:29.222Z,100988.16
2022-12-01T09:36:58.582Z,100986.06
2022-12-01T09:39:27.700Z,100985.59
2022-12-01T09:42:09.150Z,100982.75
2022-12-01T09:44:37.845Z,100984.47
2022-12-01T09:47:10.148Z,100982.03
2022-12-01T09:49:42.559Z,100983.47
2022-12-01T09:52:16.108Z,100982.19
2022-12-01T09:54:45.498Z,100972.03
2022-12-01T09:57:17.538Z,100983.53
2022-12-01T09:59:44.398Z,100973.84
2022-12-01T10:02:37.434Z,100968.09
2022-12-01T10:05:05.670Z,100968.25
2022-12-01T10:07:39.198Z,100960.00
2022-12-01T10:10:09.773Z,100966.22
2022-12-01T10:12:36.590Z,100962.06
2022-12-01T10:15:06.160Z,100951.22
2022-12-01T10:17:44.406Z,100952.69
2022-12-01T10:20:16.716Z,100954.78
2022-12-01T10:22:46.443Z,100956.41
2022-12-01T10:25:19.195Z,100952.53
2022-12-01T10:28:03.976Z,100951.25
2022-12-01T10:30:30.550Z,100952.09
2022-12-01T10:32:59.867Z,100932.03
2022-12-01T10:35:29.223Z,100934.88
2022-12-01T10:38:04.541Z,100932.09
2022-12-01T10:40:35.251Z,100930.94
2022-12-01T10:43:04.656Z,100932.25
2022-12-01T10:45:34.970Z,100929.81
2022-12-01T10:48:16.953Z,100928.34
2022-12-01T10:50:44.635Z,100933.31
2022-12-01T10:53:31.700Z,100920.13
2022-12-01T10:56:05.818Z,100914.28
2022-12-01T10:58:52.838Z,100914.28
2022-12-01T11:01:20.941Z,100914.19
2022-12-01T11:03:57.816Z,100915.69
2022-12-01T11:06:25.652Z,100913.88
2022-12-01T11:09:00.400Z,100906.72
2022-12-01T11:11:26.936Z,100904.00
2022-12-01T11:13:56.944Z,100906.81
2022-12-01T11:16:39.294Z,100896.94
2022-12-01T11:19:26.631Z,100896.66
2022-12-01T11:21:59.919Z,100891.72
2022-12-01T11:24:45.614Z,100893.47
2022-12-01T11:27:16.734Z,100891.84
2022-12-01T11:29:45.809Z,100898.84
2022-12-01T11:32:22.936Z,100888.00
2022-12-01T11:34:51.056Z,100888.50
2022-12-01T11:37:18.132Z,100884.91
2022-12-01T11:39:48.481Z,100882.59
2022-12-01T11:42:22.750Z,100883.78
2022-12-01T11:44:51.730Z,100885.97
2022-12-01T11:47:23.596Z,100882.44
2022-12-01T11:49:58.102Z,100873.59
2022-12-01T11:52:29.766Z,100877.31
2022-12-01T11:54:56.481Z,100876.94
2022-12-01T11:57:34.190Z,100863.91
2022-12-01T12:00:04.930Z,100873.88
2022-12-01T12:02:54.555Z,100879.03
2022-12-01T12:05:32.656Z,100873.19
2022-12-01T12:08:14.528Z,100873.03
2022-12-01T12:10:47.340Z,100871.22
2022-12-01T12:13:17.051Z,100866.81
2022-12-01T12:15:52.806Z,100871.72
2022-12-01T12:18:38.237Z,100868.63
2022-12-01T12:21:08.014Z,100874.81
2022-12-01T12:23:37.437Z,100868.81
2022-12-01T12:26:18.807Z,100874.06
2022-12-01T12:28:52.374Z,100864.19
2022-12-01T12:31:21.993Z,100864.94
2022-12-01T12:34:11.081Z,100866.88
2022-12-01T12:36:52.547Z,100866.00
2022-12-01T12:39:24.789Z,100867.13
2022-12-01T12:41:55.440Z,100865.06
2022-12-01T12:44:39.181Z,100863.28
2022-12-01T12:47:25.113Z,100863.41
2022-12-01T12:49:54.816Z,100865.31
2022-12-01T12:52:36.724Z,100869.34
2022-12-01T12:55:12.677Z,100854.56
2022-12-01T12:57:46.152Z,100854.13
2022-12-01T13:00:17.813Z,100862.81
2022-12-01T13:02:44.676Z,100855.38
2022-12-01T13:05:14.530Z,100859.00
2022-12-01T13:07:54.706Z,100863.09
2022-12-01T13:10:23.831Z,100853.44
2022-12-01T13:13:15.959Z,100854.41
2022-12-01T13:15:42.640Z,100850.75
2022-12-01T13:18:31.767Z,100858.19
2022-12-01T13:21:02.409Z,100847.19
2022-12-01T13:23:29.104Z,100850.00
2022-12-01T13:25:57.951Z,100847.28
2022-12-01T13:28:28.938Z,100848.47
2022-12-01T13:31:01.868Z,100852.22
2022-12-01T13:33:31.004Z,100853.16
2022-12-01T13:36:29.883Z,100850.19
2022-12-01T13:38:46.910Z,100854.56
2022-12-01T13:41:18.618Z,100853.44
2022-12-01T13:44:04.799Z,100858.59
2022-12-01T13:46:50.788Z,100855.84
2022-12-01T13:49:38.399Z,100860.25
2022-12-01T13:52:23.458Z,100851.97
2022-12-01T13:55:08.395Z,100858.56
2022-12-01T13:57:38.908Z,100857.94
2022-12-01T14:00:27.656Z,100856.75
2022-12-01T14:03:12.850Z,100851.22
2022-12-01T14:05:42.042Z,100850.28
2022-12-01T14:08:40.269Z,100856.00
2022-12-01T14:11:09.222Z,100858.03
2022-12-01T14:13:46.434Z,100854.06
2022-12-01T14:16:13.115Z,100849.06
2022-12-01T14:18:43.378Z,100852.84
2022-12-01T14:21:14.165Z,100848.34
2022-12-01T14:23:58.459Z,100843.84
2022-12-01T14:26:27.500Z,100848.06
2022-12-01T14:29:00.297Z,100859.56
2022-12-01T14:31:32.994Z,100857.00
2022-12-01T14:34:02.586Z,100849.34
2022-12-01T14:36:44.878Z,100854.00
2022-12-01T14:39:14.045Z,100854.41
2022-12-01T14:41:40.676Z,100865.22
2022-12-01T14:44:18.810Z,100862.22
2022-12-01T14:46:53.316Z,100855.56
2022-12-01T14:49:24.861Z,100845.53
2022-12-01T14:51:53.994Z,100853.09
2022-12-01T14:54:23.662Z,100852.63
2022-12-01T14:56:51.499Z,100858.47
2022-12-01T14:59:24.448Z,100858.00
2022-12-01T15:01:51.653Z,100863.59
2022-12-01T15:04:18.496Z,100860.59
2022-12-01T15:06:47.578Z,100858.63
2022-12-01T15:12:04.859Z,100859.97
2022-12-01T15:14:36.163Z,100856.31
2022-12-01T15:17:05.563Z,100860.38
2022-12-01T15:19:32.373Z,100862.75
2022-12-01T15:21:59.485Z,100863.59
2022-12-01T15:24:27.134Z,100864.41
2022-12-01T15:26:59.107Z,100864.28
2022-12-01T15:29:29.933Z,100865.03
2022-12-01T15:32:00.383Z,100870.06
2022-12-01T15:34:29.076Z,100868.16
2022-12-01T15:36:58.077Z,100868.00
2022-12-01T15:39:29.827Z,100862.72
2022-12-01T15:41:56.474Z,100860.91
2022-12-01T15:44:27.094Z,100863.56
2022-12-01T15:46:53.742Z,100866.88
2022-12-01T15:49:30.083Z,100864.28
2022-12-01T15:52:09.614Z,100869.34
2022-12-01T15:54:41.159Z,100871.66
2022-12-01T15:57:07.863Z,100872.19
2022-12-01T15:59:40.306Z,100867.00
2022-12-01T16:02:16.668Z,100862.66
2022-12-01T16:04:43.912Z,100872.81
2022-12-01T16:07:14.001Z,100873.63
2022-12-01T16:09:44.476Z,100879.47
2022-12-01T16:12:17.736Z,100880.22
2022-12-01T16:14:49.857Z,100874.16
2022-12-01T16:17:17.192Z,100866.19
2022-12-01T16:19:46.135Z,100867.66
2022-12-01T16:22:15.798Z,100864.88
2022-12-01T16:24:54.243Z,100872.56
2022-12-01T16:27:23.440Z,100871.53
2022-12-01T16:29:53.119Z,100878.22
2022-12-01T16:32:22.781Z,100871.84
2022-12-01T16:34:50.581Z,100875.13
2022-12-01T16:37:17.268Z,100868.75
2022-12-01T16:39:46.147Z,100873.69
2022-12-01T16:42:13.871Z,100875.34
2022-12-01T16:44:43.613Z,100875.03
2022-12-01T16:47:12.401Z,100878.16
2022-12-01T16:49:39.459Z,100880.66
2022-12-01T16:52:21.999Z,100879.63
2022-12-01T16:54:53.481Z,100875.25
2022-12-01T16:57:20.083Z,100885.75
2022-12-01T16:59:46.598Z,100878.88
2022-12-01T17:02:19.314Z,100883.97
2022-12-01T17:04:45.955Z,100883.97
2022-12-01T17:07:16.844Z,100887.38
2022-12-01T17:09:46.248Z,100890.13
2022-12-01T17:12:15.862Z,100886.69
2022-12-01T17:14:42.492Z,100892.69
2022-12-01T17:17:09.121Z,100890.06
2022-12-01T17:19:35.774Z,100888.09
2022-12-01T17:22:04.666Z,100885.38
2022-12-01T17:24:31.513Z,100888.41
2022-12-01T17:27:02.529Z,100887.28
2022-12-01T17:29:29.073Z,100895.53
2022-12-01T17:31:58.146Z,100897.66
2022-12-01T17:34:27.597Z,100893.66
2022-12-01T17:36:56.633Z,100888.31
2022-12-01T17:39:23.552Z,100892.38
2022-12-01T17:41:50.131Z,100906.09
2022-12-01T17:44:19.311Z,100902.25
2022-12-01T17:46:45.887Z,100900.94
2022-12-01T17:49:13.667Z,100900.50
2022-12-01T17:51:40.566Z,100897.44
2022-12-01T17:54:07.353Z,100900.69
2022-12-01T17:56:34.760Z,100903.03
2022-12-01T17:59:06.109Z,100897.75
2022-12-01T18:01:33.127Z,100906.16
2022-12-01T18:03:59.749Z,100904.06
2022-12-01T18:06:26.981Z,100904.53
2022-12-01T18:08:53.837Z,100904.28
2022-12-01T18:11:20.848Z,100903.00
2022-12-01T18:13:50.201Z,100908.69
2022-12-01T18:16:21.353Z,100908.28
2022-12-01T18:18:48.111Z,100902.13
2022-12-01T18:21:15.986Z,100910.53
2022-12-01T18:23:43.119Z,100905.72
2022-12-01T18:26:15.432Z,100909.00
2022-12-01T18:28:44.925Z,100905.47
2022-12-01T18:31:16.066Z,100904.56
2022-12-01T18:33:43.581Z,100902.94
2022-12-01T18:36:14.038Z,100907.47
2022-12-01T18:38:43.347Z,100910.06
2022-12-01T18:41:14.060Z,100906.53
2022-12-01T18:43:42.939Z,100907.22
2022-12-01T18:46:10.199Z,100906.97
2022-12-01T18:48:42.483Z,100906.25
2022-12-01T18:51:11.429Z,100909.72
2022-12-01T18:53:38.318Z,100911.50
2022-12-01T18:56:15.190Z,100913.09
2022-12-01T18:58:42.065Z,100912.13
2022-12-01T19:01:22.575Z,100909.56
2022-12-01T19:03:51.341Z,100909.56
2022-12-01T19:06:20.643Z,100912.13
2022-12-01T19:08:47.264Z,100917.19
2022-12-01T19:11:16.316Z,100917.28
2022-12-01T19:13:43.001Z,100917.19
2022-12-01T19:16:10.930Z,100922.97
2022-12-01T19:18:40.056Z,100927.50
2022-12-01T19:21:10.096Z,100929.38
2022-12-01T19:23:37.230Z,100928.56
2022-12-01T19:26:07.893Z,100931.13
2022-12-01T19:28:37.110Z,100922.81
2022-12-01T19:31:07.932Z,100924.94
2022-12-01T19:33:37.471Z,100927.59
2022-12-01T19:36:08.396Z,100928.41
2022-12-01T19:38:34.977Z,100928.28
2022-12-01T19:41:01.577Z,100921.28
2022-12-01T19:43:28.202Z,100924.66
2022-12-01T19:45:54.765Z,100921.13
2022-12-01T19:48:23.986Z,100914.91
2022-12-01T19:50:53.019Z,100920.38
2022-12-01T19:53:19.669Z,100928.03
2022-12-01T19:55:49.725Z,100929.72
2022-12-01T19:58:18.697Z,100929.72
2022-12-01T20:00:45.806Z,100936.75
2022-12-01T20:03:15.530Z,100936.84
2022-12-01T20:05:42.276Z,100939.94
2022-12-01T20:08:13.861Z,100931.13
2022-12-01T20:10:47.942Z,100941.34
2022-12-01T20:13:17.003Z,100936.72
2022-12-01T20:15:43.737Z,100934.84
2022-12-01T20:18:15.124Z,100940.81
2022-12-01T20:20:42.104Z,100936.19
2022-12-01T20:23:11.965Z,100934.41
2022-12-01T20:25:41.754Z,100936.09
2022-12-01T20:28:08.836Z,100937.22
2022-12-01T20:30:39.352Z,100936.16
2022-12-01T20:33:08.835Z,100935.78
2022-12-01T20:35:35.716Z,100938.94
2022-12-01T20:38:04.792Z,100941.34
2022-12-01T20:40:43.751Z,100936.38
2022-12-01T20:43:12.097Z,100936.88
2022-12-01T20:45:38.713Z,100946.38
2022-12-01T20:48:07.841Z,100946.28
2022-12-01T20:50:34.810Z,100955.69
2022-12-01T20:53:03.907Z,100952.22
2022-12-01T20:55:30.450Z,100958.19
2022-12-01T20:57:56.977Z,100959.84
2022-12-01T21:00:23.614Z,100957.78
2022-12-01T21:02:50.276Z,100954.13
2022-12-01T21:05:19.236Z,100965.19
2022-12-01T21:07:45.823Z,100958.16
2022-12-01T21:10:17.019Z,100963.19
2022-12-01T21:13:07.996Z,100964.97
2022-12-01T21:15:36.778Z,100969.03
2022-12-01T21:18:10.987Z,100978.25
2022-12-01T21:20:40.337Z,100978.03
2022-12-01T21:23:10.258Z,100971.31
2022-12-01T21:25:40.360Z,100970.44
2022-12-01T21:28:22.495Z,100960.84
2022-12-01T21:30:52.479Z,100966.97
2022-12-01T21:33:19.457Z,100974.50
2022-12-01T21:35:49.378Z,100972.69
2022-12-01T21:38:21.627Z,100983.78
2022-12-01T21:40:48.681Z,100985.97
2022-12-01T21:43:19.329Z,100982.44
2022-12-01T21:45:46.119Z,100983.31
2022-12-01T21:48:16.582Z,100981.44
2022-12-01T21:50:43.526Z,100975.69
2022-12-01T21:53:13.904Z,100979.72
2022-12-01T21:55:43.308Z,100979.66
2022-12-01T21:58:22.440Z,100978.75
2022-12-01T22:00:49.095Z,100981.22
2022-12-01T22:03:25.207Z,100982.91
2022-12-01T22:06:21.398Z,100985.38
2022-12-01T22:08:43.028Z,100978.44
2022-12-01T22:11:09.567Z,100983.19
2022-12-01T22:13:43.601Z,100983.91
2022-12-01T22:16:14.566Z,100984.56
2022-12-01T22:18:42.391Z,100983.56
2022-12-01T22:21:28.646Z,100983.56
2022-12-01T22:24:10.490Z,100986.72
2022-12-01T22:26:37.564Z,100984.75
2022-12-01T22:29:08.464Z,100975.84
2022-12-01T22:31:35.070Z,100975.94
2022-12-01T22:34:03.212Z,100970.13
2022-12-01T22:36:31.273Z,100970.91
2022-12-01T22:38:57.901Z,100961.50
2022-12-01T22:41:28.642Z,100964.19
2022-12-01T22:43:59.661Z,100964.28
2022-12-01T22:46:30.604Z,100967.06
2022-12-01T22:48:58.612Z,100969.63
2022-12-01T22:51:28.198Z,100961.44
2022-12-01T22:53:59.542Z,100953.91
2022-12-01T22:56:26.039Z,100958.25
2022-12-01T22:58:52.581Z,100968.06
2022-12-01T23:01:29.192Z,100959.75
2022-12-01T23:03:59.552Z,100961.94
2022-12-01T23:06:43.885Z,100954.53
2022-12-01T23:09:13.950Z,100966.19
2022-12-01T23:11:46.325Z,100961.13
2022-12-01T23:14:16.953Z,100960.44
2022-12-01T23:16:45.595Z,100960.44
2022-12-01T23:19:12.092Z,100959.84
2022-12-01T23:21:38.712Z,100955.09
2022-12-01T23:24:05.705Z,100959.75
2022-12-01T23:26:32.604Z,100963.53
2022-12-01T23:29:00.205Z,100962.06
2022-12-01T23:31:26.867Z,100963.81
2022-12-01T23:33:53.740Z,100961.34
2022-12-01T23:36:24.785Z,100966.78
2022-12-01T23:39:02.052Z,100962.53
2022-12-01T23:41:41.949Z,100964.41
2022-12-01T23:44:13.948Z,100963.00
2022-12-01T23:46:40.610Z,100965.75
2022-12-01T23:49:10.288Z,100967.66
2022-12-01T23:51:40.672Z,100970.91
2022-12-01T23:54:12.076Z,100975.78
2022-12-01T23:56:38.891Z,100976.69
2022-12-01T23:59:14.869Z,100975.69
